createdAt,value
2022-11-27T00:01:35.768Z,102513.88
2022-11-27T00:04:05.769Z,102519.84
2022-11-27T00:06:35.662Z,102525.78
2022-11-27T00:09:08.068Z,102515.25
2022-11-27T00:11:39.347Z,102515.19
2022-11-27T00:14:10.994Z,102517.81
2022-11-27T00:16:41.597Z,102507.25
2022-11-27T00:19:11.493Z,102509.78
2022-11-27T00:21:39.995Z,102507.97
2022-11-27T00:24:10.509Z,102487.91
2022-11-27T00:26:38.844Z,102493.06
2022-11-27T00:29:07.848Z,102493.84
2022-11-27T00:31:37.720Z,102485.03
2022-11-27T00:34:09.016Z,102498.94
2022-11-27T00:36:38.265Z,102489.28
2022-11-27T00:39:10.959Z,102487.50
2022-11-27T00:41:39.401Z,102493.53
2022-11-27T00:44:07.716Z,102496.06
2022-11-27T00:46:36.443Z,102484.66
2022-11-27T00:49:06.182Z,102478.44
2022-11-27T00:51:35.301Z,102482.69
2022-11-27T00:54:04.501Z,102478.22
2022-11-27T00:56:35.430Z,102468.56
2022-11-27T00:59:05.663Z,102468.47
2022-11-27T01:01:39.721Z,102472.72
2022-11-27T01:04:13.866Z,102474.47
2022-11-27T01:06:43.057Z,102478.78
2022-11-27T01:09:15.137Z,102486.53
2022-11-27T01:11:43.913Z,102484.72
2022-11-27T01:14:17.597Z,102482.97
2022-11-27T01:16:46.331Z,102482.88
2022-11-27T01:19:16.954Z,102479.28
2022-11-27T01:21:45.244Z,102477.47
2022-11-27T01:24:15.162Z,102480.09
2022-11-27T01:26:44.525Z,102477.41
2022-11-27T01:29:12.761Z,102473.06
2022-11-27T01:31:41.469Z,102459.94
2022-11-27T01:34:15.209Z,102451.13
2022-11-27T01:36:44.551Z,102459.75
2022-11-27T01:39:21.397Z,102456.16
2022-11-27T01:41:50.273Z,102468.25
2022-11-27T01:44:24.429Z,102459.44
2022-11-27T01:47:06.917Z,102456.84
2022-11-27T01:49:45.914Z,102456.69
2022-11-27T01:52:22.193Z,102452.28
2022-11-27T01:55:08.578Z,102451.28
2022-11-27T01:57:43.137Z,102450.31
2022-11-27T02:00:14.475Z,102443.28
2022-11-27T02:02:48.999Z,102433.59
2022-11-27T02:05:21.421Z,102435.31
2022-11-27T02:07:51.866Z,102435.22
2022-11-27T02:10:21.407Z,102434.16
2022-11-27T02:13:00.303Z,102426.25
2022-11-27T02:16:02.051Z,102433.09
2022-11-27T02:18:39.458Z,102430.31
2022-11-27T02:21:29.445Z,102421.44
2022-11-27T02:24:18.911Z,102423.88
2022-11-27T02:27:05.612Z,102422.91
2022-11-27T02:29:35.370Z,102411.41
2022-11-27T02:32:19.854Z,102422.63
2022-11-27T02:34:57.224Z,102405.91
2022-11-27T02:38:07.640Z,102404.88
2022-11-27T02:41:00.276Z,102405.66
2022-11-27T02:43:37.027Z,102399.47
2022-11-27T02:46:08.083Z,102402.00
2022-11-27T02:48:48.803Z,102399.31
2022-11-27T02:51:22.103Z,102396.69
2022-11-27T02:53:57.639Z,102380.06
2022-11-27T02:56:28.808Z,102384.38
2022-11-27T02:59:01.037Z,102387.00
2022-11-27T03:01:38.838Z,102372.97
2022-11-27T03:04:13.075Z,102374.69
2022-11-27T03:06:47.335Z,102377.31
2022-11-27T03:09:21.741Z,102365.16
2022-11-27T03:11:50.573Z,102367.75
2022-11-27T03:14:24.430Z,102369.47
2022-11-27T03:16:55.800Z,102374.69
2022-11-27T03:19:56.530Z,102372.88
2022-11-27T03:22:26.867Z,102369.47
2022-11-27T03:24:55.357Z,102365.94
2022-11-27T03:27:40.119Z,102355.50
2022-11-27T03:30:10.542Z,102357.41
2022-11-27T03:32:39.036Z,102352.28
2022-11-27T03:35:12.172Z,102363.69
2022-11-27T03:37:40.886Z,102352.44
2022-11-27T03:40:10.140Z,102352.50
2022-11-27T03:43:13.673Z,102349.06
2022-11-27T03:46:02.464Z,102333.50
2022-11-27T03:48:38.314Z,102330.97
2022-11-27T03:51:36.170Z,102325.84
2022-11-27T03:54:10.965Z,102337.19
2022-11-27T03:56:46.084Z,102334.66
2022-11-27T03:59:20.997Z,102325.19
2022-11-27T04:01:49.679Z,102326.06
2022-11-27T04:04:18.133Z,102316.56
2022-11-27T04:06:46.436Z,102318.34
2022-11-27T04:09:15.220Z,102308.78
2022-11-27T04:11:43.574Z,102303.56
2022-11-27T04:14:11.886Z,102306.25
2022-11-27T04:16:40.419Z,102302.84
2022-11-27T04:19:09.618Z,102298.50
2022-11-27T04:21:39.411Z,102295.09
2022-11-27T04:24:07.977Z,102295.09
2022-11-27T04:26:36.283Z,102290.78
2022-11-27T04:29:04.587Z,102287.31
2022-11-27T04:31:32.974Z,102283.91
2022-11-27T04:34:01.329Z,102276.16
2022-11-27T04:36:30.407Z,102276.25
2022-11-27T04:39:00.861Z,102266.69
2022-11-27T04:41:29.841Z,102269.41
2022-11-27T04:43:58.271Z,102270.28
2022-11-27T04:46:26.701Z,102270.28
2022-11-27T04:48:55.149Z,102277.22
2022-11-27T04:51:23.671Z,102279.00
2022-11-27T04:53:51.972Z,102278.19
2022-11-27T04:56:20.287Z,102285.19
2022-11-27T04:58:48.582Z,102293.03
2022-11-27T05:01:17.059Z,102300.84
2022-11-27T05:03:47.278Z,102303.56
2022-11-27T05:06:18.504Z,102300.84
2022-11-27T05:08:46.852Z,102304.38
2022-11-27T05:11:17.362Z,102312.25
2022-11-27T05:13:45.783Z,102311.47
2022-11-27T05:16:14.178Z,102296.59
2022-11-27T05:18:42.471Z,102287.97
2022-11-27T05:21:10.815Z,102287.97
2022-11-27T05:23:39.100Z,102284.56
2022-11-27T05:26:07.457Z,102274.91
2022-11-27T05:28:35.761Z,102267.97
2022-11-27T05:31:04.201Z,102267.19
2022-11-27T05:33:32.558Z,102273.19
2022-11-27T05:36:00.835Z,102267.09
2022-11-27T05:38:29.422Z,102262.63
2022-11-27T05:40:57.690Z,102261.78
2022-11-27T05:43:25.972Z,102266.13
2022-11-27T05:45:54.277Z,102266.13
2022-11-27T05:48:22.589Z,102249.47
2022-11-27T05:50:51.385Z,102252.09
2022-11-27T05:53:19.771Z,102252.91
2022-11-27T05:55:48.098Z,102243.28
2022-11-27T05:58:16.733Z,102240.69
2022-11-27T06:00:46.050Z,102231.88
2022-11-27T06:03:15.136Z,102228.31
2022-11-27T06:05:43.644Z,102225.59
2022-11-27T06:08:11.973Z,102231.63
2022-11-27T06:10:40.552Z,102237.59
2022-11-27T06:13:08.965Z,102227.97
2022-11-27T06:15:38.655Z,102227.97
2022-11-27T06:18:07.937Z,102220.97
2022-11-27T06:20:40.811Z,102217.41
2022-11-27T06:23:11.984Z,102215.59
2022-11-27T06:25:40.306Z,102215.50
2022-11-27T06:28:08.577Z,102227.66
2022-11-27T06:30:38.210Z,102221.47
2022-11-27T06:33:06.585Z,102222.28
2022-11-27T06:35:34.903Z,102216.91
2022-11-27T06:38:03.273Z,102214.16
2022-11-27T06:40:31.673Z,102216.75
2022-11-27T06:43:00.009Z,102221.09
2022-11-27T06:45:28.446Z,102224.50
2022-11-27T06:47:56.812Z,102216.63
2022-11-27T06:50:25.227Z,102213.91
2022-11-27T06:52:53.528Z,102225.25
2022-11-27T06:55:21.900Z,102213.84
2022-11-27T06:57:51.407Z,102206.91
2022-11-27T07:00:20.355Z,102198.28
2022-11-27T07:02:54.023Z,102191.25
2022-11-27T07:05:24.451Z,102203.56
2022-11-27T07:07:52.795Z,102203.56
2022-11-27T07:10:21.163Z,102191.50
2022-11-27T07:12:49.599Z,102189.78
2022-11-27T07:15:17.937Z,102197.59
2022-11-27T07:17:46.230Z,102196.84
2022-11-27T07:20:14.690Z,102205.66
2022-11-27T07:22:42.990Z,102197.81
2022-11-27T07:25:11.345Z,102202.25
2022-11-27T07:27:39.968Z,102213.66
2022-11-27T07:30:08.813Z,102208.50
2022-11-27T07:32:37.181Z,102207.59
2022-11-27T07:35:05.889Z,102201.56
2022-11-27T07:37:34.243Z,102195.53
2022-11-27T07:40:03.539Z,102195.53
2022-11-27T07:42:39.545Z,102193.00
2022-11-27T07:45:09.283Z,102187.78
2022-11-27T07:47:37.937Z,102188.75
2022-11-27T07:50:08.450Z,102174.00
2022-11-27T07:52:41.491Z,102175.78
2022-11-27T07:55:10.813Z,102172.38
2022-11-27T07:57:39.229Z,102175.94
2022-11-27T08:00:08.442Z,102161.16
2022-11-27T08:02:36.838Z,102158.63
2022-11-27T08:05:10.919Z,102150.00
2022-11-27T08:07:41.399Z,102143.16
2022-11-27T08:10:10.190Z,102137.94
2022-11-27T08:12:38.883Z,102138.91
2022-11-27T08:15:07.791Z,102142.47
2022-11-27T08:17:36.699Z,102133.00
2022-11-27T08:20:06.178Z,102123.44
2022-11-27T08:22:35.292Z,102130.53
2022-11-27T08:25:03.863Z,102130.66
2022-11-27T08:27:33.857Z,102146.34
2022-11-27T08:30:04.144Z,102135.09
2022-11-27T08:32:32.894Z,102145.56
2022-11-27T08:35:02.817Z,102152.69
2022-11-27T08:37:31.271Z,102148.34
2022-11-27T08:39:59.714Z,102159.75
2022-11-27T08:42:28.093Z,102148.50
2022-11-27T08:44:56.438Z,102159.03
2022-11-27T08:47:24.845Z,102165.22
2022-11-27T08:49:53.464Z,102166.88
2022-11-27T08:52:22.184Z,102158.19
2022-11-27T08:54:57.306Z,102150.38
2022-11-27T08:57:26.378Z,102162.63
2022-11-27T08:59:54.738Z,102160.88
2022-11-27T09:02:23.559Z,102160.13
2022-11-27T09:04:51.938Z,102165.34
2022-11-27T09:07:20.258Z,102161.06
2022-11-27T09:09:48.711Z,102158.47
2022-11-27T09:12:17.066Z,102152.38
2022-11-27T09:14:45.588Z,102145.44
2022-11-27T09:17:17.339Z,102148.88
2022-11-27T09:19:45.766Z,102148.88
2022-11-27T09:22:14.175Z,102152.38
2022-11-27T09:24:42.752Z,102142.00
2022-11-27T09:27:11.381Z,102147.22
2022-11-27T09:29:39.932Z,102146.38
2022-11-27T09:32:08.280Z,102139.56
2022-11-27T09:34:37.707Z,102146.56
2022-11-27T09:37:06.620Z,102134.47
2022-11-27T09:39:35.542Z,102138.03
2022-11-27T09:42:06.433Z,102144.31
2022-11-27T09:44:48.710Z,102146.09
2022-11-27T09:47:41.055Z,102151.47
2022-11-27T09:50:30.443Z,102147.28
2022-11-27T09:53:11.504Z,102148.25
2022-11-27T09:55:44.581Z,102149.19
2022-11-27T09:58:36.816Z,102152.72
2022-11-27T10:01:13.648Z,102154.59
2022-11-27T10:03:44.192Z,102155.38
2022-11-27T10:06:15.782Z,102151.97
2022-11-27T10:08:57.733Z,102159.88
2022-11-27T10:11:42.300Z,102149.50
2022-11-27T10:14:26.488Z,102144.28
2022-11-27T10:17:33.765Z,102139.00
2022-11-27T10:20:16.585Z,102145.88
2022-11-27T10:23:24.518Z,102138.91
2022-11-27T10:26:04.001Z,102141.53
2022-11-27T10:28:32.390Z,102126.72
2022-11-27T10:31:14.773Z,102128.47
2022-11-27T10:33:51.973Z,102133.69
2022-11-27T10:36:30.787Z,102120.47
2022-11-27T10:39:01.354Z,102124.81
2022-11-27T10:42:09.038Z,102119.50
2022-11-27T10:44:55.248Z,102114.28
2022-11-27T10:47:28.539Z,102102.06
2022-11-27T10:49:59.699Z,102102.06
2022-11-27T10:52:27.994Z,102086.38
2022-11-27T10:55:01.407Z,102081.16
2022-11-27T10:57:57.955Z,102073.25
2022-11-27T11:00:27.892Z,102064.47
2022-11-27T11:03:05.526Z,102067.88
2022-11-27T11:05:50.960Z,102067.88
2022-11-27T11:08:25.389Z,102055.66
2022-11-27T11:10:59.500Z,102059.16
2022-11-27T11:13:30.155Z,102052.19
2022-11-27T11:16:03.636Z,102046.09
2022-11-27T11:18:35.749Z,102046.09
2022-11-27T11:21:07.214Z,102042.69
2022-11-27T11:23:38.663Z,102032.22
2022-11-27T11:26:23.380Z,102032.34
2022-11-27T11:28:55.349Z,102028.09
2022-11-27T11:31:31.418Z,102017.63
2022-11-27T11:34:03.921Z,102015.09
2022-11-27T11:36:32.469Z,102010.84
2022-11-27T11:39:00.875Z,102009.06
2022-11-27T11:41:38.213Z,101996.03
2022-11-27T11:44:06.619Z,102003.06
2022-11-27T11:46:36.861Z,101996.97
2022-11-27T11:49:07.477Z,102002.25
2022-11-27T11:52:23.661Z,101991.81
2022-11-27T11:55:01.859Z,101990.97
2022-11-27T11:57:39.084Z,101977.91
2022-11-27T12:00:15.940Z,101976.19
2022-11-27T12:02:58.992Z,101971.09
2022-11-27T12:05:45.924Z,101971.19
2022-11-27T12:08:26.737Z,101965.94
2022-11-27T12:10:58.812Z,101960.78
2022-11-27T12:14:04.772Z,101955.56
2022-11-27T12:17:10.817Z,101949.50
2022-11-27T12:19:51.713Z,101947.78
2022-11-27T12:22:29.303Z,101949.56
2022-11-27T12:25:27.159Z,101957.47
2022-11-27T12:28:18.898Z,101941.88
2022-11-27T12:31:29.158Z,101931.44
2022-11-27T12:34:17.827Z,101923.59
2022-11-27T12:37:14.360Z,101934.16
2022-11-27T12:40:18.966Z,101923.91
2022-11-27T12:43:23.521Z,101925.59
2022-11-27T12:45:59.324Z,101915.22
2022-11-27T12:48:30.945Z,101921.38
2022-11-27T12:51:06.893Z,101912.69
2022-11-27T12:53:41.351Z,101899.63
2022-11-27T12:56:16.905Z,101899.63
2022-11-27T12:59:08.022Z,101897.06
2022-11-27T13:02:28.208Z,101884.16
2022-11-27T13:05:11.987Z,101879.88
2022-11-27T13:07:50.187Z,101867.75
2022-11-27T13:10:27.077Z,101866.97
2022-11-27T13:13:06.087Z,101851.31
2022-11-27T13:31:55.203Z,101824.03
2022-11-27T13:34:28.005Z,101816.13
2022-11-27T13:37:02.975Z,101819.56
2022-11-27T13:39:36.936Z,101812.59
2022-11-27T13:42:11.363Z,101810.91
2022-11-27T14:29:53.131Z,101784.91
2022-11-27T14:32:22.241Z,101772.69
2022-11-27T14:34:50.793Z,101775.34
2022-11-27T14:37:28.542Z,101768.50
2022-11-27T14:39:56.908Z,101768.53
2022-11-27T14:42:30.643Z,101756.38
2022-11-27T14:45:08.487Z,101746.88
2022-11-27T14:47:40.910Z,101744.34
2022-11-27T14:50:14.510Z,101739.28
2022-11-27T14:52:45.454Z,101737.53
2022-11-27T14:55:17.754Z,101727.16
2022-11-27T14:57:48.923Z,101728.97
2022-11-27T15:00:27.268Z,101717.72
2022-11-27T15:02:56.697Z,101724.66
2022-11-27T15:05:29.111Z,101718.59
2022-11-27T15:07:58.862Z,101714.28
2022-11-27T15:10:36.279Z,101722.16
2022-11-27T15:13:07.189Z,101720.47
2022-11-27T15:15:42.911Z,101713.50
2022-11-27T15:18:22.798Z,101713.50
2022-11-27T15:20:51.917Z,101704.81
2022-11-27T15:23:24.796Z,101703.94
2022-11-27T15:26:17.821Z,101698.75
2022-11-27T15:28:57.305Z,101701.38
2022-11-27T15:31:33.481Z,101693.59
2022-11-27T15:34:17.886Z,101696.28
2022-11-27T15:36:51.911Z,101687.72
2022-11-27T15:39:44.969Z,101690.41
2022-11-27T15:42:14.688Z,101680.03
2022-11-27T15:44:43.421Z,101680.91
2022-11-27T15:47:26.627Z,101674.94
2022-11-27T15:49:55.491Z,101670.59
2022-11-27T15:52:24.355Z,101675.00
2022-11-27T15:54:53.215Z,101667.19
2022-11-27T15:57:21.509Z,101672.53
2022-11-27T15:59:49.904Z,101674.28
2022-11-27T16:02:19.062Z,101669.03
2022-11-27T16:04:47.391Z,101666.50
2022-11-27T16:07:15.825Z,101673.47
2022-11-27T16:09:44.195Z,101666.53
2022-11-27T16:12:12.611Z,101660.47
2022-11-27T16:14:41.169Z,101664.03
2022-11-27T16:17:09.876Z,101646.53
2022-11-27T16:19:38.157Z,101656.91
2022-11-27T16:22:07.103Z,101649.06
2022-11-27T16:24:35.440Z,101655.13
2022-11-27T16:27:03.709Z,101651.69
2022-11-27T16:29:31.979Z,101654.34
2022-11-27T16:32:01.330Z,101648.34
2022-11-27T16:34:29.822Z,101649.13
2022-11-27T16:36:58.054Z,101643.00
2022-11-27T16:39:27.198Z,101647.41
2022-11-27T16:41:55.788Z,101636.94
2022-11-27T16:44:24.211Z,101633.38
2022-11-27T16:46:54.109Z,101629.88
2022-11-27T16:49:22.467Z,101629.81
2022-11-27T16:51:51.595Z,101628.88
2022-11-27T16:54:20.483Z,101625.34
2022-11-27T16:56:48.971Z,101613.97
2022-11-27T16:59:18.229Z,101618.25
2022-11-27T17:01:47.261Z,101616.47
2022-11-27T17:04:18.651Z,101601.56
2022-11-27T17:06:49.090Z,101609.41
2022-11-27T17:09:17.683Z,101600.66
2022-11-27T17:11:50.203Z,101598.06
2022-11-27T17:14:20.573Z,101590.16
2022-11-27T17:16:50.526Z,101591.00
2022-11-27T17:19:19.382Z,101580.56
2022-11-27T17:21:47.937Z,101581.44
2022-11-27T17:24:16.791Z,101582.25
2022-11-27T17:26:47.631Z,101584.00
2022-11-27T17:29:18.533Z,101581.38
2022-11-27T17:31:46.800Z,101575.19
2022-11-27T17:34:17.119Z,101574.38
2022-11-27T17:36:46.383Z,101570.84
2022-11-27T17:39:15.527Z,101563.00
2022-11-27T17:41:45.177Z,101556.13
2022-11-27T17:44:13.646Z,101555.22
2022-11-27T17:46:45.109Z,101553.47
2022-11-27T17:49:14.234Z,101550.00
2022-11-27T17:51:42.892Z,101551.81
2022-11-27T17:54:11.737Z,101552.69
2022-11-27T17:56:40.680Z,101549.19
2022-11-27T17:59:10.897Z,101554.41
2022-11-27T18:01:40.961Z,101552.75
2022-11-27T18:04:10.696Z,101544.91
2022-11-27T18:06:40.961Z,101536.19
2022-11-27T18:09:11.427Z,101540.56
2022-11-27T18:11:39.787Z,101535.31
2022-11-27T18:14:08.214Z,101532.78
2022-11-27T18:16:38.364Z,101530.22
2022-11-27T18:19:09.877Z,101530.22
2022-11-27T18:21:38.782Z,101531.09
2022-11-27T18:24:24.342Z,101522.38
2022-11-27T18:27:09.896Z,101513.69
2022-11-27T18:29:41.546Z,101507.63
2022-11-27T18:32:11.615Z,101505.03
2022-11-27T18:34:40.572Z,101506.75
2022-11-27T18:37:10.076Z,101505.91
2022-11-27T18:39:39.817Z,101494.63
2022-11-27T18:42:08.760Z,101496.38
2022-11-27T18:44:44.418Z,101495.50
2022-11-27T18:47:15.346Z,101504.22
2022-11-27T18:49:47.475Z,101514.69
2022-11-27T18:52:16.676Z,101499.84
2022-11-27T18:54:44.941Z,101498.13
2022-11-27T18:57:13.543Z,101486.78
2022-11-27T18:59:45.243Z,101500.72
2022-11-27T19:02:13.929Z,101492.88
2022-11-27T19:04:44.801Z,101489.41
2022-11-27T19:07:13.502Z,101492.84
2022-11-27T19:09:42.097Z,101484.09
2022-11-27T19:12:10.695Z,101485.84
2022-11-27T19:14:39.350Z,101482.38
2022-11-27T19:17:09.096Z,101484.06
2022-11-27T19:19:54.586Z,101482.31
2022-11-27T19:22:23.603Z,101481.44
2022-11-27T19:24:52.083Z,101482.38
2022-11-27T19:27:20.831Z,101484.16
2022-11-27T19:29:49.472Z,101485.03
2022-11-27T19:32:18.093Z,101478.09
2022-11-27T19:34:49.794Z,101468.50
2022-11-27T19:37:33.134Z,101468.50
2022-11-27T19:40:05.658Z,101462.41
2022-11-27T19:42:34.893Z,101457.22
2022-11-27T19:45:03.669Z,101459.03
2022-11-27T19:47:32.050Z,101454.66
2022-11-27T19:50:00.380Z,101453.81
2022-11-27T19:52:29.127Z,101451.19
2022-11-27T19:54:57.502Z,101447.75
2022-11-27T19:57:26.392Z,101439.06
2022-11-27T19:59:54.891Z,101434.69
2022-11-27T20:02:24.909Z,101433.03
2022-11-27T20:04:54.465Z,101435.63
2022-11-27T20:07:24.012Z,101434.81
2022-11-27T20:09:52.804Z,101427.84
2022-11-27T20:12:21.728Z,101420.00
2022-11-27T20:14:50.055Z,101423.50
2022-11-27T20:17:19.952Z,101412.16
2022-11-27T20:19:48.544Z,101412.97
2022-11-27T20:22:17.038Z,101412.97
2022-11-27T20:25:11.277Z,101407.75
2022-11-27T20:27:36.429Z,101406.06
2022-11-27T20:30:07.083Z,101401.66
2022-11-27T20:32:35.494Z,101403.44
2022-11-27T20:35:04.960Z,101403.38
2022-11-27T20:37:34.103Z,101397.28
2022-11-27T20:40:02.571Z,101396.47
2022-11-27T20:42:31.089Z,101385.13
2022-11-27T20:45:04.569Z,101385.97
2022-11-27T20:47:34.612Z,101385.97
2022-11-27T20:50:03.194Z,101387.69
2022-11-27T20:52:31.505Z,101390.38
2022-11-27T20:55:01.031Z,101383.34
2022-11-27T20:57:31.368Z,101383.34
2022-11-27T21:00:00.430Z,101372.88
2022-11-27T21:02:28.937Z,101371.09
2022-11-27T21:04:59.110Z,101368.47
2022-11-27T21:07:27.651Z,101364.13
2022-11-27T21:09:57.275Z,101360.56
2022-11-27T21:12:25.677Z,101356.25
2022-11-27T21:14:53.986Z,101344.94
2022-11-27T21:17:22.269Z,101345.75
2022-11-27T21:19:51.275Z,101343.16
2022-11-27T21:22:19.695Z,101332.69
2022-11-27T21:24:51.077Z,101338.78
2022-11-27T21:27:19.803Z,101336.97
2022-11-27T21:29:48.397Z,101329.97
2022-11-27T21:32:18.388Z,101326.41
2022-11-27T21:34:47.864Z,101322.00
2022-11-27T21:37:16.515Z,101322.00
2022-11-27T21:39:45.700Z,101300.97
2022-11-27T21:42:16.580Z,101305.31
2022-11-27T21:44:45.235Z,101304.44
2022-11-27T21:47:15.248Z,101298.34
2022-11-27T21:49:44.137Z,101295.75
2022-11-27T21:52:14.706Z,101283.47
2022-11-27T21:54:43.480Z,101279.06
2022-11-27T21:57:13.080Z,101280.00
2022-11-27T21:59:42.978Z,101277.31
2022-11-27T22:02:12.044Z,101275.59
2022-11-27T22:04:41.029Z,101273.84
2022-11-27T22:07:09.896Z,101277.31
2022-11-27T22:09:38.430Z,101274.75
2022-11-27T22:12:07.166Z,101264.31
2022-11-27T22:14:35.776Z,101258.16
2022-11-27T22:17:04.258Z,101252.06
2022-11-27T22:19:34.825Z,101251.19
2022-11-27T22:22:03.615Z,101254.63
2022-11-27T22:24:32.159Z,101252.00
2022-11-27T22:27:00.477Z,101238.88
2022-11-27T22:29:28.998Z,101237.13
2022-11-27T22:31:57.403Z,101237.13
2022-11-27T22:34:26.049Z,101239.75
2022-11-27T22:36:56.164Z,101241.53
2022-11-27T22:39:24.748Z,101228.41
2022-11-27T22:41:53.224Z,101234.53
2022-11-27T22:44:21.528Z,101231.03
2022-11-27T22:46:50.888Z,101225.81
2022-11-27T22:49:19.248Z,101226.69
2022-11-27T22:51:48.140Z,101218.84
2022-11-27T22:54:17.571Z,101224.06
2022-11-27T22:56:46.908Z,101221.44
2022-11-27T22:59:33.969Z,101221.44
2022-11-27T23:02:06.319Z,101213.63
2022-11-27T23:04:36.677Z,101213.63
2022-11-27T23:07:06.108Z,101218.03
2022-11-27T23:09:34.999Z,101221.44
2022-11-27T23:12:03.651Z,101219.66
2022-11-27T23:14:31.907Z,101214.44
2022-11-27T23:17:00.315Z,101214.44
2022-11-27T23:19:28.738Z,101213.63
2022-11-27T23:21:57.026Z,101209.22
2022-11-27T23:24:25.485Z,101213.56
2022-11-27T23:26:53.779Z,101205.66
2022-11-27T23:29:22.044Z,101199.63
2022-11-27T23:31:50.418Z,101191.78
2022-11-27T23:34:18.709Z,101190.03
2022-11-27T23:36:47.297Z,101190.03
2022-11-27T23:39:15.903Z,101182.19
2022-11-27T23:41:44.383Z,101167.38
2022-11-27T23:44:12.753Z,101169.13
2022-11-27T23:46:41.043Z,101153.50
2022-11-27T23:49:09.395Z,101148.28
2022-11-27T23:51:37.810Z,101153.50
2022-11-27T23:54:10.922Z,101150.03
2022-11-27T23:56:39.453Z,101156.13
2022-11-27T23:59:07.738Z,101151.78
